Time;durP1;ratioP1;P1;durP2;ratioP2;P2;SDS_P1;SDS_P2;PMS_P1;PMS_P2;Temp;Humidity;BMP_temperature;BMP_pressure;BME280_temperature;BME280_humidity;BME280_pressure;Samples;Min_cycle;Max_cycle;Signal;HPM_P1;HPM_P2
2021/04/05 00:00:54;;;;;;;13.05;6.25;;;;;;;;;;5022847;28;20021;-82
2021/04/05 00:03:39;;;;;;;16.60;6.82;;;;;;;;;;5027853;28;20033;-82
2021/04/05 00:06:25;;;;;;;14.40;6.50;;;;;;;;;;5026035;28;20048;-83
2021/04/05 00:09:10;;;;;;;18.83;7.22;;;;;;;;;;5025794;28;20587;-83
2021/04/05 00:11:56;;;;;;;14.05;6.22;;;;;;;;;;5027942;28;20067;-84
2021/04/05 00:14:42;;;;;;;13.60;7.15;;;;;;;;;;5024700;28;20562;-83
2021/04/05 00:17:27;;;;;;;17.08;7.18;;;;;;;;;;5027181;28;20136;-85
2021/04/05 00:20:15;;;;;;;14.35;5.95;;;;;;;;;;5031881;28;20021;-85
2021/04/05 00:23:00;;;;;;;12.98;6.78;;;;;;;;;;5027668;28;20018;-83
2021/04/05 00:25:45;;;;;;;14.10;6.55;;;;;;;;;;5024480;28;20032;-84
2021/04/05 00:28:31;;;;;;;15.93;6.70;;;;;;;;;;5022336;28;20017;-84
2021/04/05 00:31:16;;;;;;;14.02;6.85;;;;;;;;;;5022774;28;20053;-84
2021/04/05 00:34:01;;;;;;;17.23;6.82;;;;;;;;;;5027087;28;20493;-83
2021/04/05 00:36:46;;;;;;;13.40;5.78;;;;;;;;;;5009784;28;20021;-83
2021/04/05 00:39:32;;;;;;;13.73;6.60;;;;;;;;;;5025467;28;20146;-84
2021/04/05 00:42:18;;;;;;;14.23;6.50;;;;;;;;;;5021672;28;20034;-82
2021/04/05 00:45:07;;;;;;;14.75;6.00;;;;;;;;;;5024810;28;20696;-83
2021/04/05 00:47:53;;;;;;;11.00;5.90;;;;;;;;;;5022015;28;20048;-83
2021/04/05 00:50:44;;;;;;;16.00;6.35;;;;;;;;;;5025622;28;20048;-82
2021/04/05 00:53:38;;;;;;;13.43;6.00;;;;;;;;;;5024885;28;20033;-82
2021/04/05 00:56:24;;;;;;;11.88;5.93;;;;;;;;;;5023691;28;20550;-83
2021/04/05 00:59:09;;;;;;;11.82;5.90;;;;;;;;;;5027734;28;20022;-82
2021/04/05 01:01:55;;;;;;;17.73;6.25;;;;;;;;;;5021718;28;20501;-82
2021/04/05 01:04:40;;;;;;;13.70;6.63;;;;;;;;;;5027475;28;20013;-85
2021/04/05 01:07:25;;;;;;;13.55;6.38;;;;;;;;;;5023025;28;20322;-85
2021/04/05 01:10:11;;;;;;;15.85;6.60;;;;;;;;;;5026828;28;20383;-84
2021/04/05 01:12:56;;;;;;;16.50;6.50;;;;;;;;;;5025391;28;20029;-84
2021/04/05 01:15:41;;;;;;;16.60;6.15;;;;;;;;;;5027349;28;20045;-83
2021/04/05 01:18:31;;;;;;;13.98;6.65;;;;;;;;;;5021913;28;20041;-82
2021/04/05 01:21:16;;;;;;;16.38;6.95;;;;;;;;;;5021325;28;20368;-82
2021/04/05 01:24:02;;;;;;;14.88;6.38;;;;;;;;;;5023346;28;20036;-82
2021/04/05 01:26:47;;;;;;;13.43;5.68;;;;;;;;;;5012386;28;20075;-83
2021/04/05 01:29:32;;;;;;;13.88;6.15;;;;;;;;;;5026052;28;20079;-82
2021/04/05 01:32:17;;;;;;;12.40;5.50;;;;;;;;;;5025160;28;20056;-82
2021/04/05 01:35:03;;;;;;;13.18;5.70;;;;;;;;;;5026615;28;20029;-84
2021/04/05 01:37:48;;;;;;;14.05;6.07;;;;;;;;;;5021913;28;20064;-83
2021/04/05 01:40:38;;;;;;;11.40;6.00;;;;;;;;;;5025506;28;20627;-83
2021/04/05 01:43:23;;;;;;;11.95;6.10;;;;;;;;;;5018415;28;20383;-83
2021/04/05 01:46:10;;;;;;;11.13;6.05;;;;;;;;;;5022084;28;20076;-82
2021/04/05 01:48:59;;;;;;;13.57;6.00;;;;;;;;;;5024483;28;20025;-82
2021/04/05 01:51:44;;;;;;;15.25;6.05;;;;;;;;;;5023907;28;20083;-82
2021/04/05 01:54:32;;;;;;;12.30;6.43;;;;;;;;;;5022064;28;20033;-83
2021/04/05 01:57:17;;;;;;;12.55;5.85;;;;;;;;;;5026847;28;20375;-83
2021/04/05 02:00:14;;;;;;;12.23;5.63;;;;;;;;;;5022541;28;20471;-82
2021/04/05 02:03:03;;;;;;;10.88;5.55;;;;;;;;;;5025141;28;20484;-83
2021/04/05 02:06:07;;;;;;;12.60;5.28;;;;;;;;;;5019820;28;20029;-82
2021/04/05 02:08:52;;;;;;;15.00;6.45;;;;;;;;;;5020288;28;20025;-82
2021/04/05 02:11:38;;;;;;;10.15;5.07;;;;;;;;;;5010084;28;20044;-82
2021/04/05 02:14:23;;;;;;;12.95;5.90;;;;;;;;;;5022456;28;20037;-84
2021/04/05 02:17:09;;;;;;;13.20;5.13;;;;;;;;;;5035718;28;20033;-85
2021/04/05 02:19:54;;;;;;;11.95;6.15;;;;;;;;;;5021553;28;20021;-82
2021/04/05 02:22:43;;;;;;;12.15;5.70;;;;;;;;;;5026438;28;20129;-84
2021/04/05 02:25:30;;;;;;;12.43;5.68;;;;;;;;;;5023769;28;20099;-82
2021/04/05 02:28:15;;;;;;;13.73;5.78;;;;;;;;;;5022022;28;20381;-82
2021/04/05 02:31:01;;;;;;;13.82;5.72;;;;;;;;;;5008020;28;20498;-82
2021/04/05 02:33:47;;;;;;;14.38;7.00;;;;;;;;;;5026418;28;20034;-82
2021/04/05 02:36:33;;;;;;;12.68;6.00;;;;;;;;;;5019091;28;20121;-82
2021/04/05 02:39:18;;;;;;;10.20;5.57;;;;;;;;;;5026534;28;20056;-83
2021/04/05 02:42:04;;;;;;;9.70;5.22;;;;;;;;;;5021906;28;20032;-84
2021/04/05 02:44:49;;;;;;;10.70;5.50;;;;;;;;;;5021069;28;20040;-83
2021/04/05 02:47:35;;;;;;;12.88;5.30;;;;;;;;;;5019896;28;20343;-84
2021/04/05 02:50:22;;;;;;;15.48;5.57;;;;;;;;;;5022081;28;20100;-82
2021/04/05 02:53:07;;;;;;;11.82;5.53;;;;;;;;;;5024516;28;20049;-82
2021/04/05 02:55:52;;;;;;;12.57;4.95;;;;;;;;;;5022496;28;20105;-84
2021/04/05 02:58:42;;;;;;;15.65;5.22;;;;;;;;;;5026192;28;20147;-82
2021/04/05 03:01:28;;;;;;;;;;;;;;;;;;5016071;28;20376;-82
2021/04/05 03:04:13;;;;;;;13.30;5.05;;;;;;;;;;5024839;28;20027;-82
2021/04/05 03:06:58;;;;;;;11.18;5.53;;;;;;;;;;5023217;28;20078;-83
2021/04/05 03:09:44;;;;;;;11.23;5.35;;;;;;;;;;5020298;28;20107;-83
2021/04/05 03:12:29;;;;;;;13.70;5.63;;;;;;;;;;5023226;28;20033;-83
2021/04/05 03:15:14;;;;;;;13.40;5.80;;;;;;;;;;5023141;28;20087;-84
2021/04/05 03:18:01;;;;;;;11.35;5.68;;;;;;;;;;5008019;28;20029;-83
2021/04/05 03:20:47;;;;;;;11.27;5.35;;;;;;;;;;5025421;28;20426;-83
2021/04/05 03:23:33;;;;;;;11.38;5.95;;;;;;;;;;5022378;28;20045;-82
2021/04/05 03:26:18;;;;;;;13.48;5.65;;;;;;;;;;5025681;28;20080;-81
2021/04/05 03:29:04;;;;;;;15.00;5.70;;;;;;;;;;5022970;28;20025;-81
2021/04/05 03:31:51;;;;;;;12.25;5.13;;;;;;;;;;5026400;28;20025;-81
2021/04/05 03:34:38;;;;;;;14.02;5.10;;;;;;;;;;5024601;28;20037;-83
2021/04/05 03:37:25;;;;;;;12.38;5.45;;;;;;;;;;5022368;28;20016;-81
2021/04/05 03:40:10;;;;;;;11.90;5.20;;;;;;;;;;5023493;28;20108;-82
2021/04/05 03:43:22;;;;;;;11.05;5.10;;;;;;;;;;5020459;28;20025;-83
2021/04/05 03:46:12;;;;;;;14.98;5.35;;;;;;;;;;5025360;28;20257;-82
2021/04/05 03:48:57;;;;;;;10.73;5.97;;;;;;;;;;5028873;28;20030;-83
2021/04/05 03:52:03;;;;;;;12.48;5.50;;;;;;;;;;5024326;28;20184;-82
2021/04/05 03:54:50;;;;;;;12.07;5.80;;;;;;;;;;5022472;28;20029;-83
2021/04/05 03:57:40;;;;;;;15.88;5.10;;;;;;;;;;5025276;28;20357;-82
2021/04/05 04:00:26;;;;;;;15.27;5.68;;;;;;;;;;5024542;28;20090;-83
2021/04/05 04:03:13;;;;;;;12.73;5.18;;;;;;;;;;5033628;28;20022;-83
2021/04/05 04:06:02;;;;;;;12.73;6.55;;;;;;;;;;5009006;28;20071;-84
2021/04/05 04:08:48;;;;;;;14.02;6.05;;;;;;;;;;5015455;28;20029;-82
2021/04/05 04:11:35;;;;;;;12.82;6.30;;;;;;;;;;5023379;28;20025;-83
2021/04/05 04:14:20;;;;;;;8.20;4.68;;;;;;;;;;5008659;28;20580;-83
2021/04/05 04:17:06;;;;;;;10.90;5.55;;;;;;;;;;5026792;28;20021;-83
2021/04/05 04:19:52;;;;;;;13.95;6.50;;;;;;;;;;5019450;28;20030;-84
2021/04/05 04:22:37;;;;;;;14.02;6.00;;;;;;;;;;5028353;28;20306;-83
2021/04/05 04:25:23;;;;;;;9.00;5.03;;;;;;;;;;5022165;28;20017;-83
2021/04/05 04:28:13;;;;;;;9.85;5.47;;;;;;;;;;5028282;28;20483;-82
2021/04/05 04:30:59;;;;;;;12.32;6.18;;;;;;;;;;5013185;28;20122;-82
2021/04/05 04:33:46;;;;;;;11.07;5.75;;;;;;;;;;5028222;28;20025;-82
2021/04/05 04:36:31;;;;;;;13.68;5.88;;;;;;;;;;5024356;28;20028;-83
2021/04/05 04:39:17;;;;;;;10.73;5.82;;;;;;;;;;5027460;28;20530;-82
2021/04/05 04:42:02;;;;;;;11.38;5.28;;;;;;;;;;5012176;28;20123;-82
2021/04/05 04:44:47;;;;;;;15.98;5.95;;;;;;;;;;5026054;28;20388;-82
2021/04/05 04:47:33;;;;;;;10.43;5.35;;;;;;;;;;5027851;28;20111;-82
2021/04/05 04:50:19;;;;;;;10.98;5.88;;;;;;;;;;5020929;28;20037;-82
2021/04/05 04:53:04;;;;;;;11.05;5.90;;;;;;;;;;5027990;28;20026;-82
2021/04/05 04:55:50;;;;;;;12.70;5.45;;;;;;;;;;5017967;28;20531;-82
2021/04/05 04:58:35;;;;;;;13.27;6.30;;;;;;;;;;5025467;28;20036;-83
2021/04/05 05:01:20;;;;;;;16.35;6.55;;;;;;;;;;5023320;28;20357;-82
2021/04/05 05:04:10;;;;;;;13.52;6.80;;;;;;;;;;5024478;28;20026;-83
2021/04/05 05:06:55;;;;;;;;;;;;;;;;;;5024383;28;20100;-81
2021/04/05 05:09:41;;;;;;;11.25;5.97;;;;;;;;;;5034690;28;19905;-83
2021/04/05 05:12:26;;;;;;;13.38;5.78;;;;;;;;;;5022679;28;20120;-82
2021/04/05 05:15:14;;;;;;;13.73;5.85;;;;;;;;;;5035351;28;20076;-82
2021/04/05 05:17:59;;;;;;;13.48;5.72;;;;;;;;;;5021061;28;20426;-82
2021/04/05 05:20:44;;;;;;;18.63;6.20;;;;;;;;;;5024930;28;20098;-82
2021/04/05 05:23:30;;;;;;;15.27;6.00;;;;;;;;;;5023071;28;20053;-82
2021/04/05 05:26:16;;;;;;;11.65;5.43;;;;;;;;;;5023011;28;20026;-82
2021/04/05 05:29:06;;;;;;;11.48;6.30;;;;;;;;;;5006496;28;20037;-82
2021/04/05 05:31:51;;;;;;;12.10;5.47;;;;;;;;;;5023118;28;20013;-82
2021/04/05 05:34:36;;;;;;;11.20;5.88;;;;;;;;;;5027378;28;20100;-82
2021/04/05 05:37:22;;;;;;;11.60;5.82;;;;;;;;;;5024321;28;20025;-84
2021/04/05 05:40:07;;;;;;;10.73;5.45;;;;;;;;;;5026338;28;20024;-82
2021/04/05 05:42:55;;;;;;;15.70;5.82;;;;;;;;;;5024298;28;20025;-82
2021/04/05 05:45:43;;;;;;;11.68;5.18;;;;;;;;;;5024218;28;20426;-82
2021/04/05 05:48:44;;;;;;;12.63;5.72;;;;;;;;;;5023415;28;20087;-81
2021/04/05 05:51:59;;;;;;;12.50;5.43;;;;;;;;;;5022345;28;20475;-82
2021/04/05 05:55:01;;;;;;;10.15;5.10;;;;;;;;;;5019261;28;20069;-83
2021/04/05 05:57:56;;;;;;;13.02;5.10;;;;;;;;;;5024627;28;20032;-82
2021/04/05 06:00:53;;;;;;;12.73;5.30;;;;;;;;;;5026541;28;20037;-82
2021/04/05 06:03:58;;;;;;;11.90;5.03;;;;;;;;;;5007173;28;20222;-81
2021/04/05 06:06:46;;;;;;;11.88;5.30;;;;;;;;;;5024974;28;20057;-82
2021/04/05 06:09:54;;;;;;;14.40;5.35;;;;;;;;;;5021851;28;20518;-82
2021/04/05 06:12:49;;;;;;;10.75;5.53;;;;;;;;;;5020930;28;20091;-82
2021/04/05 06:15:43;;;;;;;11.55;4.97;;;;;;;;;;5020509;28;20084;-83
2021/04/05 06:18:37;;;;;;;12.60;5.05;;;;;;;;;;5022746;28;20700;-84
2021/04/05 06:21:35;;;;;;;12.23;4.90;;;;;;;;;;5012204;28;20045;-82
2021/04/05 06:24:29;;;;;;;13.95;5.05;;;;;;;;;;5023678;28;20420;-82
2021/04/05 06:27:20;;;;;;;10.65;4.72;;;;;;;;;;5026409;28;20017;-82
2021/04/05 06:30:05;;;;;;;12.68;5.55;;;;;;;;;;5023458;28;20455;-82
2021/04/05 06:32:56;;;;;;;12.48;5.88;;;;;;;;;;5025913;28;20010;-82
2021/04/05 06:35:41;;;;;;;10.38;5.07;;;;;;;;;;5023323;28;20044;-83
2021/04/05 06:38:34;;;;;;;13.07;5.53;;;;;;;;;;5023242;28;20167;-84
2021/04/05 06:41:22;;;;;;;11.98;4.68;;;;;;;;;;5022111;28;20014;-84
2021/04/05 06:44:13;;;;;;;14.40;5.28;;;;;;;;;;5026259;28;20376;-84
2021/04/05 06:47:26;;;;;;;11.52;5.00;;;;;;;;;;5018788;28;20032;-84
2021/04/05 06:50:14;;;;;;;11.75;6.05;;;;;;;;;;5034900;28;20036;-85
2021/04/05 06:53:02;;;;;;;10.05;4.38;;;;;;;;;;5036595;28;20091;-83
2021/04/05 06:55:49;;;;;;;10.43;4.35;;;;;;;;;;5025368;28;20371;-82
2021/04/05 06:58:54;;;;;;;16.05;5.05;;;;;;;;;;5024256;28;20035;-82
2021/04/05 07:01:49;;;;;;;10.05;4.35;;;;;;;;;;5021362;28;20026;-81
2021/04/05 07:04:49;;;;;;;11.52;4.38;;;;;;;;;;5024457;28;20022;-82
2021/04/05 07:07:34;;;;;;;;;;;;;;;;;;5023707;28;20037;-81
2021/04/05 07:10:22;;;;;;;17.67;9.30;;;;;;;;;;5035834;28;19972;-81
2021/04/05 07:13:19;;;;;;;14.27;6.28;;;;;;;;;;5025264;28;20091;-81
2021/04/05 07:16:18;;;;;;;11.32;4.78;;;;;;;;;;5021304;28;20037;-81
2021/04/05 07:19:07;;;;;;;13.53;5.23;;;;;;;;;;5020697;28;20503;-82
2021/04/05 07:22:17;;;;;;;8.73;4.53;;;;;;;;;;5019629;28;20065;-81
2021/04/05 07:25:02;;;;;;;;;;;;;;;;;;5039104;28;20021;-80
2021/04/05 07:28:12;;;;;;;13.07;5.15;;;;;;;;;;5034194;28;19909;-82
2021/04/05 07:31:01;;;;;;;9.77;4.63;;;;;;;;;;5024866;28;20116;-82
2021/04/05 07:33:48;;;;;;;18.85;9.02;;;;;;;;;;5025288;28;20033;-82
2021/04/05 07:36:39;;;;;;;10.57;5.00;;;;;;;;;;5014028;28;20361;-83
2021/04/05 07:39:30;;;;;;;13.60;5.10;;;;;;;;;;5023217;28;20029;-83
2021/04/05 07:42:24;;;;;;;15.75;5.82;;;;;;;;;;5021900;28;20025;-83
2021/04/05 07:45:32;;;;;;;9.95;5.38;;;;;;;;;;5022651;28;20378;-83
2021/04/05 07:48:23;;;;;;;11.60;4.40;;;;;;;;;;5025189;28;20423;-82
2021/04/05 07:51:13;;;;;;;14.07;5.35;;;;;;;;;;5024698;28;20064;-82
2021/04/05 07:54:02;;;;;;;11.90;5.38;;;;;;;;;;5031656;28;20200;-82
2021/04/05 07:56:50;;;;;;;10.10;4.33;;;;;;;;;;5034328;28;20075;-83
2021/04/05 07:59:49;;;;;;;12.27;5.82;;;;;;;;;;5026633;28;20291;-82
2021/04/05 08:02:48;;;;;;;16.95;9.68;;;;;;;;;;5013613;28;20136;-83
2021/04/05 08:05:52;;;;;;;14.43;5.55;;;;;;;;;;5021526;28;20040;-85
2021/04/05 08:08:43;;;;;;;12.18;5.20;;;;;;;;;;5019398;28;20056;-83
2021/04/05 08:11:32;;;;;;;11.70;4.82;;;;;;;;;;5026932;28;20530;-82
2021/04/05 08:14:29;;;;;;;11.68;5.03;;;;;;;;;;5039695;28;20057;-82
2021/04/05 08:17:17;;;;;;;13.45;5.00;;;;;;;;;;5024751;28;20025;-82
2021/04/05 08:20:12;;;;;;;14.00;5.25;;;;;;;;;;5023015;28;20030;-82
2021/04/05 08:23:11;;;;;;;12.65;4.93;;;;;;;;;;5025309;28;20025;-82
2021/04/05 08:25:59;;;;;;;;;;;;;;;;;;5028674;28;20059;-82
2021/04/05 08:28:59;;;;;;;11.55;4.72;;;;;;;;;;5038664;28;19918;-81
2021/04/05 08:32:04;;;;;;;10.80;4.45;;;;;;;;;;5021246;28;20029;-82
2021/04/05 08:35:08;;;;;;;10.48;5.07;;;;;;;;;;5024595;28;20435;-83
2021/04/05 08:37:59;;;;;;;11.95;4.88;;;;;;;;;;5026391;28;20022;-82
2021/04/05 08:40:48;;;;;;;9.73;3.47;;;;;;;;;;5021802;28;20391;-82
2021/04/05 08:43:40;;;;;;;15.53;4.20;;;;;;;;;;5022134;28;20083;-81
2021/04/05 08:46:28;;;;;;;20.20;4.05;;;;;;;;;;5025475;28;20394;-83
2021/04/05 08:49:20;;;;;;;7.97;3.30;;;;;;;;;;5023267;28;20036;-83
2021/04/05 08:52:08;;;;;;;18.70;4.80;;;;;;;;;;5025593;28;20033;-82
2021/04/05 08:54:53;;;;;;;13.75;4.28;;;;;;;;;;5017717;28;20028;-82
2021/04/05 08:57:41;;;;;;;12.02;4.53;;;;;;;;;;5011777;28;20026;-81
2021/04/05 09:00:28;;;;;;;14.40;4.50;;;;;;;;;;5023550;28;20372;-81
2021/04/05 09:03:17;;;;;;;11.60;3.58;;;;;;;;;;5023165;28;20087;-84
2021/04/05 09:06:07;;;;;;;9.45;4.05;;;;;;;;;;5023238;28;20131;-81
2021/04/05 09:08:53;;;;;;;20.10;3.90;;;;;;;;;;5027667;28;20580;-82
2021/04/05 09:11:41;;;;;;;12.65;4.40;;;;;;;;;;5022023;28;20048;-82
2021/04/05 09:14:26;;;;;;;11.95;3.90;;;;;;;;;;5027808;28;20049;-82
2021/04/05 09:17:23;;;;;;;8.95;4.18;;;;;;;;;;5024562;28;20065;-83
2021/04/05 09:20:14;;;;;;;11.38;3.63;;;;;;;;;;5026907;28;20025;-84
2021/04/05 09:23:06;;;;;;;8.52;4.00;;;;;;;;;;5026837;28;20041;-82
2021/04/05 09:25:56;;;;;;;9.73;3.75;;;;;;;;;;5024842;28;20186;-82
2021/04/05 09:29:00;;;;;;;12.02;4.45;;;;;;;;;;5017757;28;20049;-82
2021/04/05 09:31:45;;;;;;;9.80;4.22;;;;;;;;;;5019180;28;20376;-83
2021/04/05 09:34:54;;;;;;;10.70;3.97;;;;;;;;;;5025611;28;20021;-82
2021/04/05 09:37:57;;;;;;;17.05;4.45;;;;;;;;;;5019395;28;20048;-82
2021/04/05 09:41:02;;;;;;;13.73;3.70;;;;;;;;;;5026017;28;20430;-82
2021/04/05 09:43:50;;;;;;;15.13;3.75;;;;;;;;;;5038664;28;20074;-82
2021/04/05 09:46:44;;;;;;;10.68;3.25;;;;;;;;;;5023714;28;20536;-82
2021/04/05 09:49:38;;;;;;;10.35;3.53;;;;;;;;;;5025896;28;20037;-83
2021/04/05 09:52:32;;;;;;;8.00;3.15;;;;;;;;;;5015400;28;20113;-83
2021/04/05 09:55:26;;;;;;;9.48;3.70;;;;;;;;;;5026594;28;20072;-83
2021/04/05 09:58:20;;;;;;;10.98;3.33;;;;;;;;;;5009981;28;20047;-82
2021/04/05 10:01:14;;;;;;;10.77;4.22;;;;;;;;;;5022801;28;20024;-81
2021/04/05 10:04:04;;;;;;;13.18;3.65;;;;;;;;;;5022384;28;20048;-81
2021/04/05 10:06:50;;;;;;;12.32;4.15;;;;;;;;;;5026240;28;20022;-81
2021/04/05 10:09:36;;;;;;;11.63;3.45;;;;;;;;;;5017895;28;20095;-82
2021/04/05 10:12:23;;;;;;;11.23;4.40;;;;;;;;;;5025614;28;20049;-83
2021/04/05 10:15:11;;;;;;;12.52;3.60;;;;;;;;;;5025399;28;20049;-85
2021/04/05 10:17:59;;;;;;;10.63;3.95;;;;;;;;;;5023779;28;20385;-83
2021/04/05 10:20:49;;;;;;;11.18;4.68;;;;;;;;;;5039631;28;20036;-83
2021/04/05 10:23:35;;;;;;;9.82;3.72;;;;;;;;;;5019554;28;20380;-83
2021/04/05 10:26:20;;;;;;;8.02;3.22;;;;;;;;;;5024695;28;20471;-82
2021/04/05 10:29:09;;;;;;;8.98;3.53;;;;;;;;;;5022448;28;20021;-82
2021/04/05 10:31:54;;;;;;;6.57;3.10;;;;;;;;;;5020648;28;20024;-83
2021/04/05 10:34:43;;;;;;;11.18;3.42;;;;;;;;;;5022280;28;20384;-82
2021/04/05 10:37:31;;;;;;;7.88;3.42;;;;;;;;;;5023679;28;20024;-83
2021/04/05 10:40:17;;;;;;;8.10;3.78;;;;;;;;;;5023101;28;20106;-84
2021/04/05 10:43:29;;;;;;;8.13;3.78;;;;;;;;;;5020586;28;20071;-83
2021/04/05 10:46:19;;;;;;;11.63;4.00;;;;;;;;;;5025093;28;20487;-82
2021/04/05 10:49:07;;;;;;;7.20;3.30;;;;;;;;;;5023385;28;20051;-83
2021/04/05 10:51:55;;;;;;;7.55;3.88;;;;;;;;;;5020319;28;20440;-82
2021/04/05 10:54:41;;;;;;;8.10;3.42;;;;;;;;;;5006258;28;20058;-82
2021/04/05 10:57:34;;;;;;;8.23;3.70;;;;;;;;;;5025763;28;20079;-82
2021/04/05 11:00:22;;;;;;;10.93;3.45;;;;;;;;;;5022436;28;20033;-82
2021/04/05 11:03:10;;;;;;;10.55;3.88;;;;;;;;;;5025035;28;20025;-82
2021/04/05 11:05:57;;;;;;;10.38;3.42;;;;;;;;;;5021622;28;20381;-81
2021/04/05 11:08:47;;;;;;;9.60;3.22;;;;;;;;;;5024691;28;20029;-82
2021/04/05 11:11:39;;;;;;;7.15;3.40;;;;;;;;;;5021172;28;20048;-83
2021/04/05 11:14:25;;;;;;;10.80;3.47;;;;;;;;;;5023435;28;20049;-82
2021/04/05 11:17:10;;;;;;;6.90;3.40;;;;;;;;;;5008984;28;20608;-82
2021/04/05 11:19:56;;;;;;;8.98;3.50;;;;;;;;;;5024727;28;20021;-82
2021/04/05 11:22:41;;;;;;;8.25;3.78;;;;;;;;;;5022769;28;20468;-82
2021/04/05 11:25:30;;;;;;;12.73;3.58;;;;;;;;;;5020356;28;20071;-80
2021/04/05 11:28:19;;;;;;;14.23;3.85;;;;;;;;;;5027090;28;20048;-81
2021/04/05 11:31:07;;;;;;;9.18;3.88;;;;;;;;;;5026679;28;20030;-81
2021/04/05 11:33:53;;;;;;;12.57;4.10;;;;;;;;;;5027535;28;20475;-81
2021/04/05 11:36:44;;;;;;;12.10;4.32;;;;;;;;;;5020485;28;20068;-83
2021/04/05 11:39:36;;;;;;;11.35;4.20;;;;;;;;;;5028444;28;20720;-81
2021/04/05 11:42:22;;;;;;;18.48;5.93;;;;;;;;;;5022415;28;20526;-81
2021/04/05 11:45:08;;;;;;;20.20;5.45;;;;;;;;;;5029410;28;20156;-81
2021/04/05 11:47:53;;;;;;;10.73;5.03;;;;;;;;;;5025596;28;20373;-81
2021/04/05 11:50:41;;;;;;;20.48;6.03;;;;;;;;;;5029713;28;20091;-82
2021/04/05 11:53:45;;;;;;;12.88;5.75;;;;;;;;;;5026287;28;20021;-82
2021/04/05 11:56:32;;;;;;;13.13;5.40;;;;;;;;;;5026010;28;20058;-81
2021/04/05 11:59:21;;;;;;;14.07;6.72;;;;;;;;;;5028013;28;20036;-82
2021/04/05 12:02:17;;;;;;;16.30;7.30;;;;;;;;;;5023774;28;20091;-82
2021/04/05 12:05:05;;;;;;;14.45;6.13;;;;;;;;;;5027266;28;20123;-83
2021/04/05 12:08:12;;;;;;;16.33;6.97;;;;;;;;;;5024017;28;20059;-83
2021/04/05 12:11:02;;;;;;;16.63;6.88;;;;;;;;;;5026763;28;20018;-82
2021/04/05 12:13:49;;;;;;;11.98;5.60;;;;;;;;;;5024842;28;20061;-82
2021/04/05 12:16:37;;;;;;;13.82;5.35;;;;;;;;;;5027574;28;20037;-83
2021/04/05 12:19:38;;;;;;;11.73;6.05;;;;;;;;;;5019572;28;20026;-82
2021/04/05 12:22:24;;;;;;;17.90;7.05;;;;;;;;;;5034177;28;20060;-82
2021/04/05 12:25:09;;;;;;;14.80;6.50;;;;;;;;;;5028718;28;20136;-83
2021/04/05 12:27:57;;;;;;;18.15;6.40;;;;;;;;;;5025174;28;20017;-81
2021/04/05 12:30:43;;;;;;;13.13;6.53;;;;;;;;;;5029199;28;20021;-81
2021/04/05 12:33:32;;;;;;;13.20;6.53;;;;;;;;;;5021298;28;20072;-80
2021/04/05 12:36:18;;;;;;;19.40;6.97;;;;;;;;;;5024884;28;20026;-80
2021/04/05 12:39:04;;;;;;;13.90;6.97;;;;;;;;;;5024160;28;20031;-82
2021/04/05 12:41:51;;;;;;;20.95;7.53;;;;;;;;;;5027839;28;20476;-82
2021/04/05 12:44:38;;;;;;;16.38;6.78;;;;;;;;;;5023062;28;20033;-82
2021/04/05 12:47:49;;;;;;;18.00;7.55;;;;;;;;;;5023255;28;20025;-81
2021/04/05 12:50:35;;;;;;;18.48;8.15;;;;;;;;;;5025215;28;20025;-81
2021/04/05 12:53:24;;;;;;;18.27;8.38;;;;;;;;;;5026349;28;20032;-81
2021/04/05 12:56:20;;;;;;;25.92;10.20;;;;;;;;;;5005435;28;20068;-81
2021/04/05 12:59:05;;;;;;;21.73;8.32;;;;;;;;;;5022861;28;20080;-81
2021/04/05 13:01:52;;;;;;;18.52;8.55;;;;;;;;;;5026899;28;20060;-81
2021/04/05 13:04:42;;;;;;;14.60;8.10;;;;;;;;;;5022505;28;20076;-82
2021/04/05 13:07:35;;;;;;;18.90;8.05;;;;;;;;;;5024213;28;20032;-80
2021/04/05 13:10:23;;;;;;;19.13;8.40;;;;;;;;;;5023847;28;20025;-82
2021/04/05 13:13:11;;;;;;;18.98;9.32;;;;;;;;;;5027825;28;20647;-82
2021/04/05 13:16:00;;;;;;;20.73;9.65;;;;;;;;;;5024359;28;20058;-82
2021/04/05 13:18:49;;;;;;;22.33;10.15;;;;;;;;;;5027684;28;20117;-82
2021/04/05 13:21:36;;;;;;;23.10;9.88;;;;;;;;;;5023862;28;20095;-81
2021/04/05 13:24:41;;;;;;;20.98;9.20;;;;;;;;;;5026899;28;20487;-82
2021/04/05 13:27:26;;;;;;;17.52;9.48;;;;;;;;;;5027345;28;20503;-82
2021/04/05 13:30:12;;;;;;;20.20;9.57;;;;;;;;;;5022425;28;20495;-81
2021/04/05 13:32:59;;;;;;;17.83;9.65;;;;;;;;;;5014101;28;20614;-81
2021/04/05 13:35:44;;;;;;;21.13;9.85;;;;;;;;;;5022972;28;20086;-81
2021/04/05 13:38:30;;;;;;;17.00;9.25;;;;;;;;;;5026731;28;20037;-81
2021/04/05 13:41:17;;;;;;;18.40;9.85;;;;;;;;;;5024820;28;20015;-79
2021/04/05 13:44:14;;;;;;;23.52;9.85;;;;;;;;;;5022817;28;20025;-81
2021/04/05 13:47:01;;;;;;;22.10;10.43;;;;;;;;;;5022906;28;20025;-80
2021/04/05 13:49:55;;;;;;;18.13;8.55;;;;;;;;;;5024360;28;20044;-80
2021/04/05 13:52:41;;;;;;;19.90;9.40;;;;;;;;;;5022738;28;20804;-80
2021/04/05 13:55:29;;;;;;;18.80;9.40;;;;;;;;;;5021745;28;20036;-81
2021/04/05 13:58:16;;;;;;;22.25;8.80;;;;;;;;;;5023796;28;20032;-81
2021/04/05 14:01:13;;;;;;;18.55;8.75;;;;;;;;;;5026761;28;20091;-81
2021/04/05 14:03:59;;;;;;;16.88;9.15;;;;;;;;;;5026819;28;20036;-81
2021/04/05 14:06:49;;;;;;;21.92;9.13;;;;;;;;;;5020926;28;20041;-81
2021/04/05 14:09:35;;;;;;;17.98;8.23;;;;;;;;;;5022289;28;20029;-81
2021/04/05 14:12:22;;;;;;;18.60;8.90;;;;;;;;;;5023583;28;20071;-81
2021/04/05 14:15:09;;;;;;;19.67;9.15;;;;;;;;;;5026307;28;20073;-80
2021/04/05 14:17:55;;;;;;;16.98;7.60;;;;;;;;;;5021467;28;20410;-81
2021/04/05 14:20:41;;;;;;;14.63;7.05;;;;;;;;;;5025562;28;20040;-81
2021/04/05 14:23:29;;;;;;;17.77;7.13;;;;;;;;;;5020839;28;20025;-81
2021/04/05 14:26:17;;;;;;;14.68;7.05;;;;;;;;;;5026436;28;20153;-81
2021/04/05 14:29:03;;;;;;;13.27;7.13;;;;;;;;;;5018832;28;20025;-82
2021/04/05 14:31:49;;;;;;;14.80;7.03;;;;;;;;;;5025715;28;20450;-80
2021/04/05 14:34:36;;;;;;;12.98;7.53;;;;;;;;;;5019601;28;20064;-79
2021/04/05 14:37:37;;;;;;;16.02;6.63;;;;;;;;;;5026055;28;20053;-79
2021/04/05 14:40:22;;;;;;;12.35;7.20;;;;;;;;;;5025651;28;20045;-80
2021/04/05 14:43:11;;;;;;;12.55;7.13;;;;;;;;;;5022735;28;20021;-80
2021/04/05 14:46:00;;;;;;;20.35;7.32;;;;;;;;;;5038329;28;20024;-80
2021/04/05 14:48:46;;;;;;;15.27;8.18;;;;;;;;;;5016242;28;20021;-80
2021/04/05 14:51:33;;;;;;;18.95;7.47;;;;;;;;;;5025932;28;20043;-81
2021/04/05 14:54:23;;;;;;;11.32;6.93;;;;;;;;;;5023410;28;20254;-80
2021/04/05 14:57:08;;;;;;;;;;;;;;;;;;5023608;28;20025;-80
2021/04/05 14:59:54;;;;;;;16.63;9.13;;;;;;;;;;5023228;28;19978;-80
2021/04/05 15:02:40;;;;;;;18.05;9.63;;;;;;;;;;5023654;28;20021;-82
2021/04/05 15:05:34;;;;;;;14.43;8.40;;;;;;;;;;5020958;28;20057;-80
2021/04/05 15:08:23;;;;;;;16.65;8.85;;;;;;;;;;5025119;28;20564;-81
2021/04/05 15:11:18;;;;;;;15.00;8.63;;;;;;;;;;5021790;28;20022;-83
2021/04/05 15:14:04;;;;;;;17.05;9.18;;;;;;;;;;5010388;28;20495;-82
2021/04/05 15:16:52;;;;;;;17.75;9.40;;;;;;;;;;5022994;28;20113;-82
2021/04/05 15:19:38;;;;;;;17.92;7.40;;;;;;;;;;5015666;28;20025;-82
2021/04/05 15:22:23;;;;;;;15.93;7.93;;;;;;;;;;5023352;28;20024;-82
2021/04/05 15:25:09;;;;;;;5.32;2.97;;;;;;;;;;5020613;28;20022;-82
2021/04/05 15:27:56;;;;;;;5.35;2.47;;;;;;;;;;5013878;28;20018;-82
2021/04/05 15:30:45;;;;;;;3.00;1.98;;;;;;;;;;5020434;28;20037;-82
2021/04/05 15:33:32;;;;;;;2.90;1.60;;;;;;;;;;5023728;28;20479;-81
2021/04/05 15:36:25;;;;;;;3.38;1.30;;;;;;;;;;5022886;28;20033;-81
2021/04/05 15:39:18;;;;;;;1.90;1.05;;;;;;;;;;5024213;28;20018;-82
2021/04/05 15:42:09;;;;;;;1.20;1.10;;;;;;;;;;5023049;28;20104;-82
2021/04/05 15:45:03;;;;;;;2.25;1.38;;;;;;;;;;5025080;28;20799;-82
2021/04/05 15:47:53;;;;;;;1.33;1.23;;;;;;;;;;5024875;28;20033;-82
2021/04/05 15:50:38;;;;;;;;;;;;;;;;;;5019689;28;20057;-81
2021/04/05 15:53:24;;;;;;;1.85;1.25;;;;;;;;;;5024715;28;20256;-81
2021/04/05 15:56:11;;;;;;;2.58;1.45;;;;;;;;;;5015998;28;20048;-81
2021/04/05 15:58:57;;;;;;;2.67;1.20;;;;;;;;;;5024603;28;20043;-82
2021/04/05 16:01:46;;;;;;;1.90;1.30;;;;;;;;;;5019556;28;20029;-81
2021/04/05 16:04:52;;;;;;;1.10;1.00;;;;;;;;;;5021892;28;20059;-81
2021/04/05 16:07:58;;;;;;;1.63;1.20;;;;;;;;;;5021721;28;20095;-80
2021/04/05 16:11:00;;;;;;;3.78;1.70;;;;;;;;;;5022923;28;20040;-80
2021/04/05 16:13:55;;;;;;;1.77;1.25;;;;;;;;;;5025755;28;20053;-80
2021/04/05 16:16:46;;;;;;;2.33;1.30;;;;;;;;;;5024547;28;20480;-81
2021/04/05 16:19:45;;;;;;;1.98;1.60;;;;;;;;;;5023217;28;20033;-81
2021/04/05 16:22:33;;;;;;;2.67;1.50;;;;;;;;;;5025309;28;20021;-80
2021/04/05 16:25:19;;;;;;;2.55;1.60;;;;;;;;;;5027003;28;20029;-80
2021/04/05 16:28:06;;;;;;;2.38;1.40;;;;;;;;;;5022719;28;20018;-80
2021/04/05 16:30:54;;;;;;;3.63;1.67;;;;;;;;;;5028374;28;20041;-81
2021/04/05 16:33:46;;;;;;;4.50;1.83;;;;;;;;;;5024734;28;20034;-80
2021/04/05 16:36:32;;;;;;;5.43;1.50;;;;;;;;;;5028136;28;20048;-81
2021/04/05 16:39:22;;;;;;;2.63;1.45;;;;;;;;;;5020792;28;20105;-81
2021/04/05 16:42:07;;;;;;;4.72;1.50;;;;;;;;;;5027826;28;20029;-81
2021/04/05 16:44:54;;;;;;;4.03;1.50;;;;;;;;;;5023689;28;20033;-80